Time;durP1;ratioP1;P1;durP2;ratioP2;P2;SDS_P1;SDS_P2;PMS_P1;PMS_P2;Temp;Humidity;BMP_temperature;BMP_pressure;BME280_temperature;BME280_humidity;BME280_pressure;Samples;Min_cycle;Max_cycle;Signal;HPM_P1;HPM_P2
2021/10/22 00:00:57;;;;;;;10.57;3.03;;;6.90;97.30;;;;;;5076159;28;20183;-79
2021/10/22 00:03:22;;;;;;;4.37;2.00;;;6.90;97.30;;;;;;5076881;28;20588;-78
2021/10/22 00:05:49;;;;;;;3.63;2.50;;;6.90;97.30;;;;;;5076826;28;20261;-78
2021/10/22 00:08:14;;;;;;;10.93;2.67;;;6.90;97.30;;;;;;5076150;28;20199;-79
2021/10/22 00:10:41;;;;;;;8.40;3.10;;;6.90;97.30;;;;;;5094685;28;20937;-79
2021/10/22 00:13:07;;;;;;;15.17;2.13;;;6.90;97.30;;;;;;5094250;28;20204;-79
2021/10/22 00:15:32;;;;;;;4.33;1.83;;;6.90;97.30;;;;;;5075747;28;20400;-78
2021/10/22 00:17:58;;;;;;;14.03;2.60;;;6.90;97.30;;;;;;5075588;28;20175;-78
2021/10/22 00:20:24;;;;;;;7.37;2.60;;;6.80;97.30;;;;;;5093721;28;20171;-78
2021/10/22 00:22:49;;;;;;;7.93;2.33;;;6.80;97.30;;;;;;5076257;28;20254;-78
2021/10/22 00:25:15;;;;;;;14.03;2.43;;;6.80;97.30;;;;;;5076606;28;20170;-78
2021/10/22 00:27:40;;;;;;;7.63;2.67;;;6.80;97.30;;;;;;5076143;28;20194;-78
2021/10/22 00:30:07;;;;;;;11.60;2.97;;;6.80;97.30;;;;;;5094593;28;20193;-78
2021/10/22 00:32:33;;;;;;;3.13;2.00;;;6.70;97.30;;;;;;5075813;28;20226;-78
2021/10/22 00:34:58;;;;;;;5.73;2.63;;;6.70;97.30;;;;;;5093475;28;20449;-79
2021/10/22 00:37:24;;;;;;;4.60;2.20;;;6.70;97.30;;;;;;5093363;28;20440;-79
2021/10/22 00:39:50;;;;;;;4.60;1.97;;;6.70;97.30;;;;;;5075272;28;20170;-79
2021/10/22 00:42:17;;;;;;;4.30;2.40;;;6.70;97.30;;;;;;5075104;28;21132;-78
2021/10/22 00:44:43;;;;;;;7.60;2.40;;;6.70;97.30;;;;;;5076072;28;20178;-79
2021/10/22 00:47:09;;;;;;;3.60;2.37;;;6.70;97.30;;;;;;5094345;28;20405;-79
2021/10/22 00:49:35;;;;;;;8.63;2.40;;;6.70;97.30;;;;;;5094311;28;20212;-78
2021/10/22 00:52:01;;;;;;;6.97;2.70;;;6.70;97.30;;;;;;5076011;28;20202;-79
2021/10/22 00:54:26;;;;;;;3.67;1.80;;;6.70;97.30;;;;;;5075248;28;20170;-76
2021/10/22 00:56:52;;;;;;;10.00;2.23;;;6.70;97.30;;;;;;5075076;28;20431;-78
2021/10/22 00:59:18;;;;;;;11.70;2.60;;;6.70;97.30;;;;;;5074740;28;20245;-78
2021/10/22 01:01:43;;;;;;;5.30;2.13;;;6.70;97.30;;;;;;5074754;28;20284;-78
2021/10/22 01:04:09;;;;;;;10.17;2.53;;;6.70;97.30;;;;;;5075420;28;20549;-78
2021/10/22 01:06:38;;;;;;;14.93;2.77;;;6.70;97.30;;;;;;5075494;28;20211;-79
2021/10/22 01:09:12;;;;;;;15.17;2.73;;;6.80;97.30;;;;;;5075750;28;20225;-78
2021/10/22 01:11:39;;;;;;;8.30;2.50;;;6.80;97.30;;;;;;5075568;28;20437;-77
2021/10/22 01:14:05;;;;;;;6.63;2.30;;;6.80;97.30;;;;;;5058846;28;20412;-78
2021/10/22 01:16:32;;;;;;;19.53;2.77;;;6.80;97.30;;;;;;5092346;28;20470;-78
2021/10/22 01:18:57;;;;;;;5.67;2.37;;;6.80;97.30;;;;;;5092854;28;20462;-78
2021/10/22 01:21:23;;;;;;;5.03;2.50;;;6.80;97.30;;;;;;5073377;28;20441;-79
2021/10/22 01:23:49;;;;;;;11.13;2.27;;;6.80;97.30;;;;;;5074674;28;20200;-78
2021/10/22 01:26:18;;;;;;;6.93;2.90;;;6.80;97.30;;;;;;5075587;28;20808;-78
2021/10/22 01:28:44;;;;;;;9.90;2.13;;;6.80;97.30;;;;;;5075465;28;20464;-79
2021/10/22 01:31:09;;;;;;;6.30;2.10;;;6.80;97.30;;;;;;5093486;28;20445;-79
2021/10/22 01:33:37;;;;;;;18.10;3.33;;;6.80;97.30;;;;;;5075451;28;20219;-78
2021/10/22 01:36:03;;;;;;;7.40;2.57;;;6.80;97.30;;;;;;5075053;28;20323;-79
2021/10/22 01:38:30;;;;;;;5.27;2.33;;;6.80;97.30;;;;;;5074321;28;20444;-78
2021/10/22 01:40:58;;;;;;;5.07;2.50;;;6.80;97.30;;;;;;5073973;28;20179;-79
2021/10/22 01:43:24;;;;;;;11.40;2.40;;;6.80;97.30;;;;;;5092603;28;20389;-79
2021/10/22 01:45:50;;;;;;;4.60;2.13;;;6.80;97.30;;;;;;5075055;28;20416;-79
2021/10/22 01:48:16;;;;;;;7.73;2.10;;;6.80;97.30;;;;;;5075218;28;20831;-78
2021/10/22 01:50:43;;;;;;;13.97;3.63;;;6.90;97.30;;;;;;5075204;28;20227;-79
2021/10/22 01:53:08;;;;;;;5.93;2.57;;;6.80;97.30;;;;;;5074971;28;20689;-79
2021/10/22 01:55:34;;;;;;;5.17;2.00;;;6.80;97.30;;;;;;5075657;28;20446;-78
2021/10/22 01:58:00;;;;;;;7.57;2.60;;;6.80;97.30;;;;;;5074618;28;20220;-78
2021/10/22 02:00:26;;;;;;;6.33;2.40;;;6.80;97.30;;;;;;5092170;28;20173;-79
2021/10/22 02:02:52;;;;;;;9.50;2.00;;;6.80;97.30;;;;;;5092069;28;20531;-75
2021/10/22 02:05:17;;;;;;;10.20;2.10;;;6.80;97.30;;;;;;5092081;28;20172;-78
2021/10/22 02:07:43;;;;;;;10.33;2.03;;;6.80;97.30;;;;;;5075216;28;20248;-78
2021/10/22 02:10:09;;;;;;;8.23;2.17;;;6.80;97.30;;;;;;5075133;28;20167;-78
2021/10/22 02:12:34;;;;;;;3.20;1.60;;;6.80;97.30;;;;;;5092830;28;20190;-78
2021/10/22 02:15:00;;;;;;;9.97;2.57;;;6.70;97.30;;;;;;5083777;22;20558;-83
2021/10/22 02:17:26;;;;;;;5.63;2.20;;;6.70;97.30;;;;;;5036667;28;20183;-83
2021/10/22 02:19:51;;;;;;;14.07;2.47;;;6.70;97.30;;;;;;5036317;28;20172;-84
2021/10/22 02:22:17;;;;;;;9.57;2.33;;;6.70;97.30;;;;;;5036863;28;20180;-84
2021/10/22 02:24:42;;;;;;;8.63;2.20;;;6.70;97.30;;;;;;5036411;28;20218;-83
2021/10/22 02:27:08;;;;;;;7.13;2.43;;;6.60;97.30;;;;;;5037482;28;20195;-83
2021/10/22 02:29:34;;;;;;;6.07;2.07;;;6.60;97.30;;;;;;5037507;28;20198;-84
2021/10/22 02:31:59;;;;;;;9.60;2.30;;;6.60;97.30;;;;;;5050730;28;20183;-82
2021/10/22 02:34:25;;;;;;;5.40;2.90;;;6.50;97.30;;;;;;5061182;28;20430;-84
2021/10/22 02:36:51;;;;;;;4.67;2.23;;;6.50;97.30;;;;;;5078969;28;20164;-83
2021/10/22 02:39:17;;;;;;;8.80;2.70;;;6.50;97.30;;;;;;5060466;28;20416;-84
2021/10/22 02:41:44;;;;;;;13.43;2.57;;;6.50;97.30;;;;;;5059625;28;20175;-83
2021/10/22 02:44:11;;;;;;;5.23;2.50;;;6.50;97.30;;;;;;5059743;28;20199;-84
2021/10/22 02:46:36;;;;;;;7.07;2.93;;;6.50;97.30;;;;;;5059864;28;20421;-84
2021/10/22 02:49:02;;;;;;;11.63;3.07;;;6.40;97.30;;;;;;5060374;28;20873;-84
2021/10/22 02:51:28;;;;;;;6.27;2.90;;;6.40;97.30;;;;;;5060752;28;20176;-84
2021/10/22 02:53:54;;;;;;;5.73;2.77;;;6.40;97.30;;;;;;5078207;28;20801;-84
2021/10/22 02:56:20;;;;;;;12.70;3.57;;;6.40;97.30;;;;;;5060724;28;20467;-84
2021/10/22 02:58:45;;;;;;;6.93;2.70;;;6.40;97.30;;;;;;5060136;28;20642;-83
2021/10/22 03:01:11;;;;;;;7.57;3.50;;;6.40;97.30;;;;;;5077086;28;20178;-82
2021/10/22 03:03:37;;;;;;;11.67;3.93;;;6.30;97.30;;;;;;5059414;28;20271;-83
2021/10/22 03:06:02;;;;;;;8.07;3.30;;;6.30;97.30;;;;;;5059594;28;20500;-84
2021/10/22 03:08:28;;;;;;;2.93;2.03;;;6.30;97.30;;;;;;5057486;28;20372;-83
2021/10/22 03:10:53;;;;;;;9.83;2.87;;;6.20;97.30;;;;;;5059028;28;20222;-84
2021/10/22 03:13:19;;;;;;;10.70;2.63;;;6.20;97.30;;;;;;5059163;28;20175;-82
2021/10/22 03:15:44;;;;;;;5.03;2.37;;;6.20;97.30;;;;;;5058370;28;20225;-84
2021/10/22 03:18:10;;;;;;;8.40;2.20;;;6.20;97.30;;;;;;5059933;28;20546;-84
2021/10/22 03:20:35;;;;;;;4.37;2.40;;;6.20;97.30;;;;;;5059070;28;20228;-84
2021/10/22 03:23:02;;;;;;;9.63;3.20;;;6.20;97.30;;;;;;5058568;28;20187;-84
2021/10/22 03:25:28;;;;;;;3.07;2.47;;;6.20;97.30;;;;;;5057139;28;20199;-83
2021/10/22 03:27:53;;;;;;;6.60;2.40;;;6.20;97.30;;;;;;5057845;28;20555;-81
2021/10/22 03:30:19;;;;;;;6.20;3.10;;;6.10;97.30;;;;;;5058836;28;20175;-83
2021/10/22 03:32:45;;;;;;;4.57;2.17;;;6.10;97.30;;;;;;5058904;28;20716;-84
2021/10/22 03:35:10;;;;;;;13.57;2.40;;;6.10;97.30;;;;;;5057645;28;20191;-83
2021/10/22 03:37:36;;;;;;;6.07;2.50;;;6.10;97.30;;;;;;5076215;28;20190;-82
2021/10/22 03:40:02;;;;;;;13.70;2.33;;;6.10;97.30;;;;;;5059888;28;20645;-83
2021/10/22 03:42:29;;;;;;;10.57;2.47;;;6.00;97.30;;;;;;5058901;28;20199;-84
2021/10/22 03:44:55;;;;;;;10.10;3.00;;;6.00;97.30;;;;;;5057216;28;20574;-83
2021/10/22 03:47:20;;;;;;;13.93;3.07;;;6.00;97.30;;;;;;5058766;28;20473;-83
2021/10/22 03:49:46;;;;;;;6.93;2.40;;;6.00;97.30;;;;;;5086862;28;20419;-83
2021/10/22 03:52:12;;;;;;;8.10;2.40;;;6.00;97.30;;;;;;5080467;28;20194;-83
2021/10/22 03:54:38;;;;;;;14.17;2.80;;;6.00;97.30;;;;;;5080134;28;20684;-84
2021/10/22 03:57:03;;;;;;;4.07;2.40;;;6.00;97.30;;;;;;5097448;28;20438;-84
2021/10/22 03:59:29;;;;;;;10.17;2.93;;;5.90;97.30;;;;;;5079224;28;20188;-84
2021/10/22 04:01:55;;;;;;;11.70;3.33;;;6.00;97.30;;;;;;5078871;28;20170;-84
2021/10/22 04:04:27;;;;;;;5.80;2.83;;;6.00;97.30;;;;;;5096776;28;20960;-83
2021/10/22 04:06:53;;;;;;;19.10;3.97;;;5.90;97.30;;;;;;5078449;28;20192;-83
2021/10/22 04:09:18;;;;;;;4.53;2.33;;;5.90;97.30;;;;;;5096665;28;20455;-84
2021/10/22 04:11:44;;;;;;;11.47;3.00;;;5.90;97.30;;;;;;5079338;28;20175;-84
2021/10/22 04:14:10;;;;;;;7.53;2.93;;;5.90;97.30;;;;;;5078625;28;20218;-84
2021/10/22 04:16:35;;;;;;;8.40;3.10;;;5.90;97.30;;;;;;5077452;28;20644;-84
2021/10/22 04:19:01;;;;;;;4.20;2.37;;;5.90;97.30;;;;;;5095231;28;20420;-84
2021/10/22 04:21:26;;;;;;;9.73;2.73;;;5.80;97.30;;;;;;5078246;28;20182;-83
2021/10/22 04:23:52;;;;;;;18.43;3.13;;;5.80;97.30;;;;;;5077794;28;20285;-83
2021/10/22 04:26:17;;;;;;;9.20;2.50;;;5.80;97.30;;;;;;5095933;28;20182;-82
2021/10/22 04:28:43;;;;;;;10.10;2.83;;;5.80;97.30;;;;;;5078430;28;20199;-84
2021/10/22 04:31:08;;;;;;;11.93;2.70;;;5.80;97.30;;;;;;5078438;28;20687;-84
2021/10/22 04:33:34;;;;;;;11.17;3.33;;;5.80;97.30;;;;;;5077697;28;20205;-83
2021/10/22 04:36:00;;;;;;;6.10;2.90;;;5.80;97.30;;;;;;5095101;28;20208;-84
2021/10/22 04:41:09;;;;;;;5.37;3.07;;;5.80;97.30;;;;;;5094971;28;20447;-85
2021/10/22 04:43:35;;;;;;;6.03;2.80;;;5.80;97.30;;;;;;5075823;28;20918;-85
2021/10/22 04:46:01;;;;;;;6.57;2.70;;;5.80;97.30;;;;;;5093820;28;20316;-85
2021/10/22 04:48:27;;;;;;;7.73;2.60;;;5.90;97.30;;;;;;5075712;28;20213;-84
2021/10/22 04:50:53;;;;;;;11.60;2.93;;;5.90;97.30;;;;;;5075949;28;20412;-84
2021/10/22 04:53:25;;;;;;;5.70;2.30;;;5.90;97.30;;;;;;5095077;28;20439;-83
2021/10/22 04:55:51;;;;;;;8.07;2.83;;;5.80;97.30;;;;;;5076543;28;20187;-83
2021/10/22 04:58:17;;;;;;;12.87;3.37;;;5.80;97.30;;;;;;5075990;28;20413;-84
2021/10/22 05:00:42;;;;;;;6.37;2.50;;;5.90;97.30;;;;;;5076548;28;20416;-84
2021/10/22 05:03:08;;;;;;;6.70;2.70;;;5.90;97.30;;;;;;5093791;28;20209;-82
2021/10/22 05:05:33;;;;;;;13.63;3.23;;;5.90;97.30;;;;;;5074376;28;20298;-84
2021/10/22 05:07:59;;;;;;;5.90;2.60;;;5.90;97.30;;;;;;5075495;28;20252;-83
2021/10/22 05:10:24;;;;;;;10.00;2.87;;;5.90;97.30;;;;;;5075224;28;20174;-84
2021/10/22 05:12:50;;;;;;;5.87;3.03;;;5.80;97.30;;;;;;5076956;28;20174;-84
2021/10/22 05:15:15;;;;;;;15.80;2.70;;;5.80;97.30;;;;;;5076616;28;20225;-85
2021/10/22 05:17:41;;;;;;;12.53;3.70;;;5.80;97.30;;;;;;5076665;28;20190;-83
2021/10/22 05:20:08;;;;;;;12.53;5.13;;;5.80;97.30;;;;;;5078288;28;20178;-83
2021/10/22 05:22:35;;;;;;;20.77;3.23;;;5.80;97.30;;;;;;5096274;28;20174;-83
2021/10/22 05:25:02;;;;;;;15.67;3.60;;;5.80;97.30;;;;;;5077208;28;20498;-84
2021/10/22 05:27:27;;;;;;;10.73;3.30;;;5.80;97.30;;;;;;5095175;28;20417;-84
2021/10/22 05:29:53;;;;;;;9.97;3.07;;;5.70;97.30;;;;;;5095084;28;20925;-83
2021/10/22 05:32:18;;;;;;;7.90;3.40;;;5.80;97.30;;;;;;5077615;28;20206;-84
2021/10/22 05:34:44;;;;;;;4.87;2.47;;;5.70;97.30;;;;;;5077928;28;20675;-84
2021/10/22 05:37:09;;;;;;;8.60;2.70;;;5.70;97.30;;;;;;5079008;28;20604;-84
2021/10/22 05:39:35;;;;;;;8.50;3.30;;;5.70;97.30;;;;;;5096029;28;20177;-84
2021/10/22 05:42:01;;;;;;;12.87;3.40;;;5.70;97.30;;;;;;5077493;28;20238;-84
2021/10/22 05:44:26;;;;;;;9.70;3.10;;;5.70;97.30;;;;;;5076902;28;20194;-84
2021/10/22 05:46:55;;;;;;;10.10;2.57;;;5.70;97.30;;;;;;5094388;28;20171;-84
2021/10/22 05:49:22;;;;;;;8.60;3.10;;;5.70;97.30;;;;;;5076797;28;20206;-84
2021/10/22 05:51:48;;;;;;;6.80;3.10;;;5.70;97.30;;;;;;5077066;28;20408;-83
2021/10/22 05:54:14;;;;;;;6.83;2.83;;;5.80;97.30;;;;;;5077344;28;20432;-84
2021/10/22 05:56:39;;;;;;;10.20;2.90;;;5.80;97.30;;;;;;5077900;28;20412;-84
2021/10/22 05:59:05;;;;;;;11.33;3.27;;;5.80;97.30;;;;;;5070996;28;20614;-83
2021/10/22 06:01:31;;;;;;;10.60;2.60;;;5.80;97.30;;;;;;5074367;28;20477;-84
2021/10/22 06:03:57;;;;;;;7.93;3.13;;;5.80;97.30;;;;;;5055147;28;20201;-84
2021/10/22 06:06:23;;;;;;;15.33;3.90;;;5.80;97.30;;;;;;5072368;28;20607;-84
2021/10/22 06:08:51;;;;;;;11.13;3.30;;;5.80;97.30;;;;;;5058803;28;20229;-84
2021/10/22 06:11:18;;;;;;;15.07;3.93;;;5.80;97.30;;;;;;5058456;28;20413;-82
2021/10/22 06:13:44;;;;;;;11.43;2.97;;;5.80;97.30;;;;;;5058422;28;20444;-84
2021/10/22 06:16:11;;;;;;;11.80;3.03;;;5.80;97.30;;;;;;5060466;28;20422;-85
2021/10/22 06:18:45;;;;;;;8.77;3.47;;;5.80;97.30;;;;;;5060402;28;20421;-84
2021/10/22 06:21:20;;;;;;;9.73;3.37;;;5.80;97.30;;;;;;5056483;28;20432;-84
2021/10/22 06:23:54;;;;;;;27.70;3.37;;;5.90;97.30;;;;;;5058805;28;20681;-84
2021/10/22 06:26:25;;;;;;;10.13;2.97;;;5.90;97.30;;;;;;5058268;28;20466;-84
2021/10/22 06:28:54;;;;;;;12.43;3.50;;;6.00;97.30;;;;;;5057957;28;20453;-84
2021/10/22 06:31:21;;;;;;;10.67;3.67;;;6.00;97.30;;;;;;5057922;28;20945;-84
2021/10/22 06:33:47;;;;;;;20.17;3.50;;;6.00;97.30;;;;;;5057776;28;20441;-85
2021/10/22 06:36:12;;;;;;;11.77;3.67;;;6.10;97.30;;;;;;5058794;28;20462;-85
2021/10/22 06:38:38;;;;;;;11.37;3.93;;;6.10;97.30;;;;;;5059569;28;20183;-84
2021/10/22 06:41:07;;;;;;;16.97;3.43;;;6.10;97.30;;;;;;5055421;28;20172;-84
2021/10/22 06:43:33;;;;;;;11.80;3.40;;;6.20;97.30;;;;;;5056077;28;20210;-84
2021/10/22 06:45:59;;;;;;;13.93;3.53;;;6.20;97.30;;;;;;5039097;28;20426;-83
2021/10/22 06:48:24;;;;;;;9.17;3.47;;;6.20;97.30;;;;;;5037923;28;20457;-84
2021/10/22 06:50:50;;;;;;;8.43;3.03;;;6.30;97.30;;;;;;5037589;28;20175;-83
2021/10/22 06:53:16;;;;;;;6.30;2.57;;;6.30;97.30;;;;;;5037908;28;20183;-85
2021/10/22 06:55:42;;;;;;;8.87;2.50;;;6.40;97.30;;;;;;5037785;28;20202;-85
2021/10/22 06:58:07;;;;;;;5.90;3.20;;;6.40;97.30;;;;;;5038862;28;20180;-84
2021/10/22 07:00:34;;;;;;;12.43;2.93;;;6.40;97.30;;;;;;5039130;28;20930;-84
2021/10/22 07:03:00;;;;;;;5.27;3.00;;;6.50;97.30;;;;;;5038043;28;20176;-84
2021/10/22 07:07:56;;;;;;;6.30;2.43;;;6.60;97.30;;;;;;5055987;28;20507;-85
2021/10/22 07:10:22;;;;;;;6.30;3.37;;;6.70;97.30;;;;;;5037074;28;20429;-84
2021/10/22 07:12:48;;;;;;;15.07;2.90;;;6.70;97.30;;;;;;5037277;28;20414;-85
2021/10/22 07:15:15;;;;;;;6.93;2.50;;;6.80;97.30;;;;;;5055532;28;20460;-85
2021/10/22 07:17:41;;;;;;;8.10;2.97;;;6.90;97.30;;;;;;5038433;28;20631;-86
2021/10/22 07:20:07;;;;;;;10.23;3.07;;;6.90;97.30;;;;;;5038340;28;20433;-85
2021/10/22 07:22:34;;;;;;;6.50;3.10;;;6.90;97.30;;;;;;5055835;28;20179;-85
2021/10/22 07:25:00;;;;;;;16.07;2.70;;;7.00;97.30;;;;;;5038258;28;20441;-85
2021/10/22 07:27:28;;;;;;;14.27;2.97;;;7.10;97.30;;;;;;5038237;28;20509;-85
2021/10/22 07:29:53;;;;;;;7.13;2.60;;;7.10;97.30;;;;;;5037670;28;21054;-84
2021/10/22 07:32:19;;;;;;;7.50;2.90;;;7.20;97.30;;;;;;5036700;28;20449;-85
2021/10/22 07:34:44;;;;;;;5.33;2.67;;;7.30;97.30;;;;;;5036674;28;20583;-85
2021/10/22 07:37:10;;;;;;;12.30;2.50;;;7.30;97.30;;;;;;5037163;28;20184;-85
2021/10/22 07:39:35;;;;;;;9.30;3.20;;;7.40;97.30;;;;;;5056354;28;20175;-85
2021/10/22 07:42:01;;;;;;;6.90;3.07;;;7.50;97.30;;;;;;5049837;28;20178;-85
2021/10/22 07:44:27;;;;;;;8.80;2.63;;;7.60;97.30;;;;;;5057221;28;20725;-85
2021/10/22 07:46:54;;;;;;;7.30;2.73;;;7.60;97.30;;;;;;5075669;28;20605;-85
2021/10/22 07:49:20;;;;;;;14.03;2.70;;;7.70;97.30;;;;;;5057788;28;20545;-85
2021/10/22 07:51:46;;;;;;;8.37;2.57;;;7.70;97.30;;;;;;5056286;28;20436;-85
2021/10/22 07:54:11;;;;;;;3.87;2.47;;;7.80;97.30;;;;;;5074787;28;20429;-84
2021/10/22 07:56:37;;;;;;;13.50;2.90;;;7.90;97.30;;;;;;5057457;28;20171;-85
2021/10/22 07:59:04;;;;;;;10.70;3.37;;;7.90;97.30;;;;;;5057636;28;20182;-85
2021/10/22 08:01:30;;;;;;;8.20;2.47;;;8.00;97.30;;;;;;5081124;28;20308;-84
2021/10/22 08:03:56;;;;;;;7.83;3.13;;;8.10;97.30;;;;;;5059122;28;20430;-84
2021/10/22 08:06:21;;;;;;;9.90;3.87;;;8.20;97.30;;;;;;5059902;28;20578;-85
2021/10/22 08:08:47;;;;;;;6.50;2.77;;;8.30;97.30;;;;;;5058897;28;20651;-85
2021/10/22 08:11:16;;;;;;;6.13;2.23;;;8.40;97.30;;;;;;5058752;28;20190;-85
2021/10/22 08:13:44;;;;;;;11.67;3.43;;;8.40;97.30;;;;;;5058188;28;20783;-84
2021/10/22 08:16:10;;;;;;;8.43;2.20;;;8.50;97.30;;;;;;5058441;28;20417;-84
2021/10/22 08:18:38;;;;;;;13.30;3.10;;;8.50;97.30;;;;;;5042069;28;20503;-85
2021/10/22 08:21:17;;;;;;;7.13;2.27;;;8.50;97.30;;;;;;5056924;28;21143;-85
2021/10/22 08:23:44;;;;;;;16.43;2.73;;;8.60;97.30;;;;;;5039765;28;20803;-84
2021/10/22 08:26:09;;;;;;;9.03;3.60;;;8.70;97.30;;;;;;5039149;28;20495;-84
2021/10/22 08:28:35;;;;;;;4.07;2.00;;;8.80;97.30;;;;;;5038648;28;20853;-86
2021/10/22 08:31:00;;;;;;;9.30;2.23;;;8.90;97.30;;;;;;5038555;28;20826;-85
2021/10/22 08:33:27;;;;;;;10.37;2.60;;;8.90;97.20;;;;;;5037490;28;20656;-85
2021/10/22 08:35:56;;;;;;;11.43;2.80;;;8.90;97.00;;;;;;5037432;28;20176;-86
2021/10/22 08:38:22;;;;;;;6.63;2.33;;;9.00;96.80;;;;;;5036352;28;20764;-85
2021/10/22 08:40:49;;;;;;;4.13;2.60;;;9.10;96.10;;;;;;5035760;28;20761;-86
2021/10/22 08:43:15;;;;;;;7.40;2.43;;;9.10;96.00;;;;;;5054973;28;20430;-84
2021/10/22 08:45:42;;;;;;;6.40;3.40;;;9.20;96.50;;;;;;5054973;28;21038;-85
2021/10/22 08:48:11;;;;;;;3.93;2.37;;;9.30;95.40;;;;;;5036662;28;20210;-85
2021/10/22 08:50:37;;;;;;;3.03;1.73;;;9.30;95.00;;;;;;5036772;28;20419;-84
2021/10/22 08:53:03;;;;;;;3.90;2.20;;;9.40;95.20;;;;;;5054182;28;20403;-86
2021/10/22 08:55:29;;;;;;;7.20;2.57;;;9.50;94.50;;;;;;5035662;28;20444;-85
2021/10/22 08:57:54;;;;;;;6.87;2.40;;;9.50;94.70;;;;;;5035227;28;20497;-86
2021/10/22 09:00:22;;;;;;;5.03;2.43;;;9.60;94.70;;;;;;5035851;28;20172;-85
2021/10/22 09:02:49;;;;;;;5.10;2.50;;;9.60;94.00;;;;;;5036189;28;20176;-85
2021/10/22 09:05:16;;;;;;;10.83;2.57;;;9.70;93.70;;;;;;5036640;28;20533;-85
2021/10/22 09:07:53;;;;;;;9.90;2.67;;;9.70;94.00;;;;;;5036858;28;20454;-84
2021/10/22 09:10:24;;;;;;;5.30;2.00;;;9.90;94.10;;;;;;5036051;28;20521;-86
2021/10/22 09:12:57;;;;;;;13.70;2.37;;;9.90;93.50;;;;;;5036095;28;20437;-85
2021/10/22 09:15:28;;;;;;;6.23;2.30;;;9.90;93.70;;;;;;5035668;28;20457;-86
2021/10/22 09:17:57;;;;;;;5.53;2.47;;;10.10;93.40;;;;;;5034202;28;20426;-86
2021/10/22 09:20:25;;;;;;;3.40;1.77;;;10.10;92.70;;;;;;5035658;28;20983;-85
2021/10/22 09:22:54;;;;;;;8.07;3.13;;;10.00;92.80;;;;;;5034973;28;20419;-86
2021/10/22 09:25:23;;;;;;;7.60;2.43;;;10.10;93.30;;;;;;5053726;28;20429;-86
2021/10/22 09:28:11;;;;;;;9.40;2.90;;;10.00;93.20;;;;;;5037270;28;20828;-86
2021/10/22 09:30:45;;;;;;;7.80;2.30;;;9.90;93.20;;;;;;5035814;28;20454;-82
2021/10/22 09:33:10;;;;;;;4.73;1.73;;;9.80;93.20;;;;;;5035880;28;20422;-85
2021/10/22 09:35:43;;;;;;;7.90;2.00;;;9.70;93.60;;;;;;5035626;28;20797;-85
2021/10/22 09:38:30;;;;;;;7.17;2.60;;;9.70;94.00;;;;;;5052438;28;20167;-85
2021/10/22 09:41:08;;;;;;;7.43;2.30;;;9.70;93.70;;;;;;5036606;28;20410;-85
2021/10/22 09:43:40;;;;;;;9.77;1.87;;;9.80;93.90;;;;;;5055274;28;20429;-85
2021/10/22 09:46:18;;;;;;;8.60;2.40;;;9.90;93.30;;;;;;5073571;28;20833;-84
2021/10/22 09:48:50;;;;;;;8.73;2.00;;;10.00;93.80;;;;;;5056395;28;20457;-86
2021/10/22 09:51:25;;;;;;;5.20;1.90;;;10.10;93.20;;;;;;5056154;28;20443;-84
2021/10/22 09:53:52;;;;;;;5.00;2.30;;;10.20;92.60;;;;;;5055786;28;20439;-85
2021/10/22 09:56:23;;;;;;;7.30;2.60;;;10.10;92.80;;;;;;5073920;28;20408;-84
2021/10/22 09:58:58;;;;;;;5.30;2.00;;;10.10;93.30;;;;;;5073347;28;20459;-85
2021/10/22 10:01:41;;;;;;;4.60;1.90;;;10.20;93.10;;;;;;5054831;28;20981;-85
2021/10/22 10:04:10;;;;;;;11.47;2.37;;;10.00;92.60;;;;;;5058095;28;20857;-85
2021/10/22 10:06:40;;;;;;;5.43;2.27;;;10.00;92.90;;;;;;5056039;28;20417;-85
2021/10/22 10:09:08;;;;;;;6.70;1.97;;;10.00;93.00;;;;;;5056277;28;20603;-85
2021/10/22 10:11:38;;;;;;;8.60;1.80;;;9.90;93.00;;;;;;5056589;28;20490;-85
2021/10/22 10:14:04;;;;;;;5.30;1.93;;;9.90;93.40;;;;;;5055459;28;20455;-85
2021/10/22 10:16:31;;;;;;;8.03;1.90;;;9.90;93.60;;;;;;5056173;28;20428;-85
2021/10/22 10:19:10;;;;;;;5.50;1.63;;;9.90;93.30;;;;;;5055973;28;20431;-85
2021/10/22 10:21:46;;;;;;;8.00;2.10;;;10.00;93.00;;;;;;5054074;28;20962;-85
2021/10/22 10:24:14;;;;;;;5.27;2.17;;;10.00;93.30;;;;;;5054896;28;20441;-84
2021/10/22 10:26:40;;;;;;;7.33;3.33;;;10.00;93.30;;;;;;5051757;28;20417;-86
2021/10/22 10:29:27;;;;;;;2.63;1.50;;;10.10;93.70;;;;;;5055463;28;20461;-83
2021/10/22 10:32:03;;;;;;;3.83;1.47;;;10.10;92.70;;;;;;5056413;28;20417;-85
2021/10/22 10:34:57;;;;;;;7.83;2.40;;;10.10;92.40;;;;;;5055359;28;20445;-80
2021/10/22 10:37:38;;;;;;;7.10;1.67;;;10.10;92.50;;;;;;5055811;28;20413;-83
2021/10/22 10:40:31;;;;;;;1.83;1.43;;;10.20;92.80;;;;;;5054821;28;20499;-84
2021/10/22 10:43:17;;;;;;;3.57;1.60;;;10.30;92.10;;;;;;5036346;28;20446;-83
2021/10/22 10:45:44;;;;;;;10.20;2.33;;;10.40;91.80;;;;;;5036334;28;20513;-83
2021/10/22 10:48:14;;;;;;;7.03;1.60;;;10.40;91.60;;;;;;5037992;28;20453;-84
2021/10/22 10:50:48;;;;;;;3.27;1.30;;;10.50;92.00;;;;;;5038197;28;20447;-86
2021/10/22 10:53:33;;;;;;;6.47;1.80;;;10.70;92.10;;;;;;5038521;28;20409;-83
2021/10/22 10:55:59;;;;;;;6.47;1.90;;;10.80;91.90;;;;;;5040214;28;20417;-83
2021/10/22 10:58:25;;;;;;;4.60;2.17;;;10.70;91.80;;;;;;5040406;28;20422;-84
2021/10/22 11:00:52;;;;;;;3.30;1.40;;;10.70;91.70;;;;;;5041035;28;20510;-82
2021/10/22 11:03:38;;;;;;;6.50;2.20;;;10.70;91.70;;;;;;5058942;28;20469;-85
2021/10/22 11:06:06;;;;;;;14.70;2.30;;;10.70;91.40;;;;;;5041381;28;20956;-85
2021/10/22 11:08:31;;;;;;;10.53;5.70;;;10.80;91.10;;;;;;5040743;28;20461;-85
2021/10/22 11:11:23;;;;;;;9.77;1.90;;;10.80;91.00;;;;;;5040754;28;20796;-83
2021/10/22 11:13:59;;;;;;;4.97;1.80;;;10.70;91.00;;;;;;5039709;28;20196;-84
2021/10/22 11:16:30;;;;;;;5.27;2.43;;;10.70;91.60;;;;;;5038426;28;20430;-84
2021/10/22 11:19:00;;;;;;;9.67;2.07;;;10.60;91.40;;;;;;5038213;28;20497;-83
2021/10/22 11:21:33;;;;;;;9.67;2.17;;;10.60;91.90;;;;;;5038855;28;20444;-83
2021/10/22 11:24:00;;;;;;;6.17;1.63;;;10.60;91.40;;;;;;5039155;28;20477;-84
2021/10/22 11:26:27;;;;;;;9.90;2.30;;;10.60;91.30;;;;;;5038815;28;20863;-85
2021/10/22 11:29:12;;;;;;;15.63;2.33;;;10.60;91.10;;;;;;5038130;28;20457;-85
2021/10/22 11:31:48;;;;;;;4.57;2.00;;;10.50;91.40;;;;;;5038550;28;20422;-84
2021/10/22 11:34:22;;;;;;;16.43;2.00;;;10.60;92.10;;;;;;5038091;28;20461;-84
2021/10/22 11:36:56;;;;;;;2.30;1.50;;;10.70;91.70;;;;;;5037525;28;20444;-84
2021/10/22 11:39:33;;;;;;;3.50;1.60;;;10.70;91.80;;;;;;5037837;28;20422;-83
2021/10/22 11:42:09;;;;;;;6.23;2.10;;;10.80;91.20;;;;;;5037837;28;20869;-84
2021/10/22 11:44:40;;;;;;;2.30;1.70;;;10.90;91.50;;;;;;5038508;28;20430;-85
2021/10/22 11:47:08;;;;;;;6.50;2.10;;;10.90;91.40;;;;;;5038990;28;20411;-85
2021/10/22 11:49:37;;;;;;;7.63;1.83;;;10.90;91.30;;;;;;5038375;28;20458;-84
2021/10/22 11:52:08;;;;;;;5.60;2.03;;;10.80;90.80;;;;;;5041200;28;20417;-84
2021/10/22 11:54:38;;;;;;;4.67;1.63;;;10.80;91.20;;;;;;5057752;28;20447;-88
2021/10/22 11:57:08;;;;;;;3.70;1.90;;;10.80;91.10;;;;;;5056979;28;20414;-85
2021/10/22 11:59:33;;;;;;;5.93;2.23;;;10.80;91.90;;;;;;5059504;28;20413;-88
2021/10/22 12:02:04;;;;;;;11.33;3.30;;;10.80;91.20;;;;;;5057020;28;20414;-83
2021/10/22 12:04:31;;;;;;;6.10;1.50;;;10.70;91.50;;;;;;5057938;28;20262;-85
2021/10/22 12:07:08;;;;;;;3.03;1.50;;;10.70;92.20;;;;;;5059007;28;20849;-84
2021/10/22 12:09:36;;;;;;;7.77;2.53;;;10.70;91.80;;;;;;5059753;28;20525;-85
2021/10/22 12:12:14;;;;;;;5.40;2.30;;;10.80;91.90;;;;;;5060060;28;20437;-84
2021/10/22 12:14:45;;;;;;;2.57;1.60;;;10.90;91.50;;;;;;5057858;28;20978;-86
2021/10/22 12:17:16;;;;;;;3.30;1.50;;;11.00;91.30;;;;;;5058029;28;20418;-86
2021/10/22 12:19:43;;;;;;;7.23;2.50;;;11.10;90.80;;;;;;5058457;28;20417;-85
2021/10/22 12:22:09;;;;;;;4.13;1.90;;;11.30;90.90;;;;;;5058363;28;20427;-84
2021/10/22 12:24:42;;;;;;;6.80;2.40;;;11.50;90.20;;;;;;5059628;28;20434;-86
2021/10/22 12:27:09;;;;;;;7.70;2.07;;;11.80;89.30;;;;;;5077701;28;20971;-87
2021/10/22 12:30:15;;;;;;;4.90;2.07;;;11.80;89.20;;;;;;5055134;28;20545;-86
2021/10/22 12:32:49;;;;;;;6.20;2.07;;;12.00;89.00;;;;;;4980655;28;20455;-84
2021/10/22 12:35:29;;;;;;;3.07;1.60;;;11.90;88.40;;;;;;4979483;28;21022;-85
2021/10/22 12:38:11;;;;;;;3.67;1.73;;;11.60;88.40;;;;;;5045931;28;20547;-84
2021/10/22 12:40:46;;;;;;;3.40;2.17;;;11.40;89.20;;;;;;5058821;28;20445;-84
2021/10/22 12:43:13;;;;;;;5.63;1.90;;;11.30;90.10;;;;;;5056003;28;20487;-83
2021/10/22 12:45:53;;;;;;;6.93;2.23;;;11.30;90.10;;;;;;5055110;28;20427;-85
2021/10/22 12:48:47;;;;;;;4.40;2.07;;;11.30;90.30;;;;;;5054912;28;20513;-86
2021/10/22 12:51:16;;;;;;;3.47;1.70;;;11.30;90.30;;;;;;5039970;28;20441;-85
2021/10/22 12:53:43;;;;;;;4.00;1.63;;;11.40;90.70;;;;;;5053913;28;20438;-85
2021/10/22 12:56:14;;;;;;;3.43;1.90;;;11.40;89.90;;;;;;5053321;28;20509;-88
2021/10/22 12:58:53;;;;;;;6.43;2.00;;;11.30;90.40;;;;;;5050305;28;20422;-85
2021/10/22 13:01:18;;;;;;;5.57;1.80;;;11.40;90.50;;;;;;5043205;28;20924;-83